createdAt,value
2019-03-09T00:00:46.195Z,9.00
2019-03-09T00:03:17.924Z,9.00
2019-03-09T00:05:49.662Z,9.00
2019-03-09T00:08:21.308Z,9.00
2019-03-09T00:10:53.249Z,9.00
2019-03-09T00:13:24.953Z,9.00
2019-03-09T00:15:56.619Z,9.00
2019-03-09T00:18:28.352Z,9.00
2019-03-09T00:21:00.110Z,9.00
2019-03-09T00:23:49.709Z,9.00
2019-03-09T00:26:29.862Z,9.00
2019-03-09T00:29:06.533Z,9.00
2019-03-09T00:31:49.270Z,9.00
2019-03-09T00:34:21.003Z,9.00
2019-03-09T00:36:52.768Z,9.00
2019-03-09T00:39:24.418Z,9.00
2019-03-09T00:41:56.166Z,9.10
2019-03-09T00:44:27.842Z,9.10
2019-03-09T00:46:59.582Z,9.10
2019-03-09T00:49:31.242Z,9.10
2019-03-09T00:52:02.931Z,9.10
2019-03-09T00:54:34.653Z,9.10
2019-03-09T00:57:06.418Z,9.10
2019-03-09T00:59:38.133Z,9.10
2019-03-09T01:02:09.884Z,9.10
2019-03-09T01:04:41.597Z,9.10
2019-03-09T01:07:13.350Z,9.10
2019-03-09T01:09:46.278Z,9.20
2019-03-09T01:12:18.068Z,9.20
2019-03-09T01:14:49.841Z,9.20
2019-03-09T01:17:21.500Z,9.20
2019-03-09T01:19:53.257Z,9.20
2019-03-09T01:22:24.979Z,9.20
2019-03-09T01:24:56.947Z,9.20
2019-03-09T01:27:28.718Z,9.20
2019-03-09T01:30:00.430Z,9.20
2019-03-09T01:32:32.163Z,9.20
2019-03-09T01:35:04.030Z,9.30
2019-03-09T01:37:35.687Z,9.30
2019-03-09T01:40:08.494Z,9.30
2019-03-09T01:42:40.244Z,9.30
2019-03-09T01:45:12.564Z,9.40
2019-03-09T01:47:44.234Z,9.40
2019-03-09T01:50:16.053Z,9.40
2019-03-09T01:52:47.719Z,9.50
2019-03-09T01:55:19.455Z,9.50
2019-03-09T01:57:51.173Z,9.50
2019-03-09T02:00:22.939Z,9.50
2019-03-09T02:02:54.633Z,9.60
2019-03-09T02:05:26.387Z,9.60
2019-03-09T02:07:58.133Z,9.60
2019-03-09T02:10:29.804Z,9.60
2019-03-09T02:13:01.469Z,9.70
2019-03-09T02:15:33.209Z,9.70
2019-03-09T02:18:04.893Z,9.80
2019-03-09T02:20:36.915Z,9.80
2019-03-09T02:23:08.644Z,9.80
2019-03-09T02:25:40.341Z,9.80
2019-03-09T02:28:12.029Z,9.80
2019-03-09T02:30:43.721Z,9.80
2019-03-09T02:33:15.407Z,9.80
2019-03-09T02:35:47.168Z,9.80
2019-03-09T02:38:39.509Z,9.80
2019-03-09T02:41:12.378Z,9.70
2019-03-09T02:43:44.101Z,9.70
2019-03-09T02:46:15.936Z,9.70
2019-03-09T02:48:47.736Z,9.60
2019-03-09T02:51:19.404Z,9.60
2019-03-09T02:53:51.077Z,9.60
2019-03-09T02:56:22.792Z,9.60
2019-03-09T02:58:54.531Z,9.60
2019-03-09T03:01:45.389Z,9.50
2019-03-09T03:04:17.222Z,9.50
2019-03-09T03:06:48.879Z,9.50
2019-03-09T03:09:20.560Z,9.50
2019-03-09T03:11:53.565Z,9.50
2019-03-09T03:14:25.592Z,9.50
2019-03-09T03:16:57.263Z,9.60
2019-03-09T03:19:30.034Z,9.60
2019-03-09T03:22:01.727Z,9.60
2019-03-09T03:24:33.451Z,9.70
2019-03-09T03:27:05.122Z,9.70
2019-03-09T03:29:36.856Z,9.80
2019-03-09T03:32:08.539Z,9.80
2019-03-09T03:34:40.277Z,9.80
2019-03-09T03:37:11.968Z,9.80
2019-03-09T03:39:43.693Z,9.90
2019-03-09T03:42:15.562Z,9.90
2019-03-09T03:44:48.358Z,9.90
2019-03-09T03:47:20.062Z,9.90
2019-03-09T03:49:51.748Z,9.90
2019-03-09T03:52:25.173Z,9.90
2019-03-09T03:54:56.922Z,9.90
2019-03-09T03:57:28.664Z,9.80
2019-03-09T04:00:01.920Z,9.80
2019-03-09T04:02:34.688Z,9.70
2019-03-09T04:05:06.617Z,9.60
2019-03-09T04:07:38.398Z,9.50
2019-03-09T04:10:11.275Z,9.50
2019-03-09T04:12:43.037Z,9.50
2019-03-09T04:15:14.761Z,9.40
2019-03-09T04:17:46.445Z,9.40
2019-03-09T04:20:18.118Z,9.30
2019-03-09T04:22:49.948Z,9.30
2019-03-09T04:25:21.635Z,9.20
2019-03-09T04:27:53.715Z,9.20
2019-03-09T04:30:25.395Z,9.20
2019-03-09T04:32:57.135Z,9.20
2019-03-09T04:35:28.816Z,9.20
2019-03-09T04:38:00.580Z,9.20
2019-03-09T04:40:32.221Z,9.20
2019-03-09T04:43:03.916Z,9.20
2019-03-09T04:45:35.570Z,9.20
2019-03-09T04:48:07.248Z,9.20
2019-03-09T04:50:39.206Z,9.20
2019-03-09T04:53:10.959Z,9.20
2019-03-09T04:55:42.630Z,9.30
2019-03-09T04:58:15.622Z,9.20
2019-03-09T05:00:47.333Z,9.20
2019-03-09T05:03:18.999Z,9.20
2019-03-09T05:05:50.759Z,9.20
2019-03-09T05:08:40.646Z,9.30
2019-03-09T05:11:15.884Z,9.30
2019-03-09T05:14:09.323Z,9.30
2019-03-09T05:16:40.991Z,9.30
2019-03-09T05:19:12.679Z,9.30
2019-03-09T05:21:44.746Z,9.30
2019-03-09T05:24:16.509Z,9.30
2019-03-09T05:26:48.186Z,9.40
2019-03-09T05:29:19.877Z,9.40
2019-03-09T05:31:51.636Z,9.40
2019-03-09T05:34:23.317Z,9.40
2019-03-09T05:36:54.987Z,9.50
2019-03-09T05:39:26.671Z,9.50
2019-03-09T05:41:58.335Z,9.50
2019-03-09T05:44:30.027Z,9.50
2019-03-09T05:47:01.681Z,9.50
2019-03-09T05:49:33.355Z,9.50
2019-03-09T05:52:30.561Z,9.50
2019-03-09T05:55:08.027Z,9.50
2019-03-09T05:57:39.827Z,9.50
2019-03-09T06:00:13.172Z,9.50
2019-03-09T06:02:44.913Z,9.50
2019-03-09T06:05:39.561Z,9.50
2019-03-09T06:08:11.271Z,9.50
2019-03-09T06:10:43.021Z,9.40
2019-03-09T06:13:15.909Z,9.40
2019-03-09T06:15:47.599Z,9.40
2019-03-09T06:18:19.306Z,9.40
2019-03-09T06:20:50.967Z,9.30
2019-03-09T06:23:22.631Z,9.30
2019-03-09T06:25:54.310Z,9.30
2019-03-09T06:28:26.081Z,9.20
2019-03-09T06:30:57.801Z,9.20
2019-03-09T06:33:33.971Z,9.20
2019-03-09T06:36:35.367Z,9.20
2019-03-09T06:39:21.675Z,9.20
2019-03-09T06:42:38.302Z,9.20
2019-03-09T06:45:12.195Z,9.20
2019-03-09T06:47:44.211Z,9.10
2019-03-09T06:50:17.917Z,9.10
2019-03-09T06:52:49.659Z,9.10
2019-03-09T06:55:21.358Z,9.10
2019-03-09T06:57:53.122Z,9.20
2019-03-09T07:00:39.627Z,9.20
2019-03-09T07:03:11.908Z,9.20
2019-03-09T07:05:43.636Z,9.20
2019-03-09T07:08:15.381Z,9.20
2019-03-09T07:10:47.048Z,9.30
2019-03-09T07:13:18.813Z,9.30
2019-03-09T07:15:50.580Z,9.30
2019-03-09T07:18:24.612Z,9.30
2019-03-09T07:20:56.318Z,9.30
2019-03-09T07:23:27.969Z,9.30
2019-03-09T07:25:59.642Z,9.40
2019-03-09T07:28:31.893Z,9.30
2019-03-09T07:31:03.652Z,9.40
2019-03-09T07:33:35.308Z,9.40
2019-03-09T07:36:07.107Z,9.40
2019-03-09T07:38:38.780Z,9.40
2019-03-09T07:41:10.529Z,9.50
2019-03-09T07:43:42.195Z,9.50
2019-03-09T07:46:13.879Z,9.60
2019-03-09T07:48:45.526Z,9.60
2019-03-09T07:51:17.228Z,9.60
2019-03-09T07:53:48.944Z,9.60
2019-03-09T07:56:20.637Z,9.70
2019-03-09T07:58:52.302Z,9.70
2019-03-09T08:01:24.129Z,9.70
2019-03-09T08:03:55.882Z,9.80
2019-03-09T08:06:27.556Z,9.80
2019-03-09T08:08:59.295Z,9.90
2019-03-09T08:11:31.022Z,9.90
2019-03-09T08:14:02.672Z,10.00
2019-03-09T08:16:35.738Z,10.00
2019-03-09T08:19:07.846Z,10.10
2019-03-09T08:21:39.674Z,10.10
2019-03-09T08:24:11.483Z,10.10
2019-03-09T08:26:43.239Z,10.10
2019-03-09T08:29:15.013Z,10.10
2019-03-09T08:31:46.732Z,10.10
2019-03-09T08:34:18.544Z,10.20
2019-03-09T08:36:50.392Z,10.20
2019-03-09T08:39:22.150Z,10.20
2019-03-09T08:41:53.979Z,10.20
2019-03-09T08:44:25.667Z,10.30
2019-03-09T08:46:57.325Z,10.30
2019-03-09T08:49:29.485Z,10.30
2019-03-09T08:52:01.226Z,10.40
2019-03-09T08:54:33.013Z,10.40
2019-03-09T08:57:04.851Z,10.50
2019-03-09T08:59:36.549Z,10.50
2019-03-09T09:02:08.828Z,10.60
2019-03-09T09:04:40.608Z,10.60
2019-03-09T09:07:12.295Z,10.60
2019-03-09T09:09:43.971Z,10.70
2019-03-09T09:12:15.725Z,10.70
2019-03-09T09:14:47.415Z,10.80
2019-03-09T09:17:19.093Z,10.80
2019-03-09T09:19:51.036Z,10.90
2019-03-09T09:22:22.787Z,11.10
2019-03-09T09:24:54.484Z,11.20
2019-03-09T09:27:26.263Z,11.30
2019-03-09T09:29:58.085Z,11.30
2019-03-09T09:32:29.846Z,11.40
2019-03-09T09:35:01.527Z,11.50
2019-03-09T09:37:33.725Z,11.60
2019-03-09T09:40:07.475Z,11.60
2019-03-09T09:42:39.165Z,11.70
2019-03-09T09:45:13.319Z,11.80
2019-03-09T09:47:45.179Z,11.90
2019-03-09T09:50:16.992Z,12.20
2019-03-09T09:52:52.608Z,12.50
2019-03-09T09:55:24.419Z,12.80
2019-03-09T09:57:56.286Z,13.00
2019-03-09T10:00:28.031Z,12.90
2019-03-09T10:02:59.785Z,12.80
2019-03-09T10:05:31.517Z,12.80
2019-03-09T10:08:03.198Z,12.90
2019-03-09T10:10:34.960Z,12.90
2019-03-09T10:13:06.714Z,13.00
2019-03-09T10:15:39.658Z,12.90
2019-03-09T10:18:12.731Z,12.80
2019-03-09T10:20:45.850Z,12.80
2019-03-09T10:23:17.545Z,12.70
2019-03-09T10:25:49.324Z,12.70
2019-03-09T10:28:21.081Z,12.60
2019-03-09T10:30:52.834Z,12.60
2019-03-09T10:33:25.402Z,12.60
2019-03-09T10:35:59.472Z,12.60
2019-03-09T10:38:31.486Z,12.50
2019-03-09T10:41:03.264Z,12.50
2019-03-09T10:43:35.108Z,12.50
2019-03-09T10:46:06.761Z,12.50
2019-03-09T10:48:38.540Z,12.60
2019-03-09T10:51:11.814Z,12.70
2019-03-09T10:53:43.573Z,12.70
2019-03-09T10:56:15.244Z,12.70
2019-03-09T10:58:47.002Z,12.70
2019-03-09T11:01:18.753Z,12.70
2019-03-09T11:03:50.451Z,12.70
2019-03-09T11:06:22.141Z,12.60
2019-03-09T11:08:53.847Z,12.50
2019-03-09T11:11:25.672Z,12.40
2019-03-09T11:13:57.432Z,12.40
2019-03-09T11:16:29.420Z,12.50
2019-03-09T11:19:01.224Z,12.50
2019-03-09T11:21:32.949Z,12.60
2019-03-09T11:24:04.662Z,12.60
2019-03-09T11:26:36.428Z,12.60
2019-03-09T11:29:08.219Z,12.60
2019-03-09T11:31:40.114Z,12.70
2019-03-09T11:34:13.037Z,12.80
2019-03-09T11:36:44.804Z,12.80
2019-03-09T11:39:16.573Z,12.90
2019-03-09T11:41:48.443Z,13.00
2019-03-09T11:44:20.155Z,13.30
2019-03-09T11:46:51.966Z,13.60
2019-03-09T11:49:25.980Z,13.70
2019-03-09T11:51:57.700Z,13.90
2019-03-09T11:54:29.528Z,14.00
2019-03-09T11:57:01.322Z,14.00
2019-03-09T11:59:34.099Z,13.90
2019-03-09T12:02:05.812Z,13.80
2019-03-09T12:04:46.285Z,13.80
2019-03-09T12:07:11.799Z,13.80
2019-03-09T12:09:43.895Z,13.90
2019-03-09T12:12:15.640Z,13.90
2019-03-09T12:14:47.308Z,13.90
2019-03-09T12:17:19.088Z,14.00
2019-03-09T12:19:52.485Z,14.00
2019-03-09T12:22:24.528Z,14.10
2019-03-09T12:24:56.244Z,14.10
2019-03-09T12:27:28.066Z,14.00
2019-03-09T12:29:59.811Z,13.80
2019-03-09T12:32:32.670Z,13.60
2019-03-09T12:35:04.475Z,13.50
2019-03-09T12:37:36.235Z,13.50
2019-03-09T12:40:10.556Z,13.50
2019-03-09T12:42:42.314Z,13.60
2019-03-09T12:45:14.386Z,13.70
2019-03-09T12:47:46.298Z,13.70
2019-03-09T12:50:18.292Z,13.90
2019-03-09T12:52:50.002Z,14.00
2019-03-09T12:55:21.673Z,14.10
2019-03-09T12:57:53.451Z,14.20
2019-03-09T13:00:26.331Z,14.20
2019-03-09T13:02:58.004Z,14.30
2019-03-09T13:05:29.790Z,14.50
2019-03-09T13:08:01.499Z,14.60
2019-03-09T13:10:33.613Z,14.70
2019-03-09T13:13:05.569Z,14.60
2019-03-09T13:15:37.448Z,14.60
2019-03-09T13:18:09.159Z,14.60
2019-03-09T13:20:40.831Z,14.60
2019-03-09T13:23:12.564Z,14.70
2019-03-09T13:25:44.433Z,14.80
2019-03-09T13:28:16.260Z,14.80
2019-03-09T13:30:47.980Z,14.80
2019-03-09T13:33:19.817Z,14.90
2019-03-09T13:35:51.502Z,14.90
2019-03-09T13:38:23.222Z,14.90
2019-03-09T13:40:55.018Z,14.80
2019-03-09T13:43:26.700Z,14.80
2019-03-09T13:45:58.414Z,14.80
2019-03-09T13:48:30.125Z,14.70
2019-03-09T13:51:01.928Z,14.60
2019-03-09T13:53:33.646Z,14.70
2019-03-09T13:56:05.410Z,14.60
2019-03-09T13:58:37.282Z,14.60
2019-03-09T14:01:09.023Z,14.60
2019-03-09T14:03:40.718Z,14.70
2019-03-09T14:06:12.445Z,14.80
2019-03-09T14:08:44.135Z,15.00
2019-03-09T14:11:15.910Z,14.90
2019-03-09T14:13:47.699Z,14.90
2019-03-09T14:16:19.340Z,14.90
2019-03-09T14:18:51.073Z,14.80
2019-03-09T14:21:22.826Z,14.70
2019-03-09T14:23:54.515Z,14.70
2019-03-09T14:26:26.531Z,14.60
2019-03-09T14:28:58.231Z,14.60
2019-03-09T14:31:29.921Z,14.70
2019-03-09T14:34:01.609Z,14.60
2019-03-09T14:36:33.306Z,14.40
2019-03-09T14:39:05.752Z,14.30
2019-03-09T14:41:37.501Z,14.20
2019-03-09T14:44:09.260Z,14.20
2019-03-09T14:46:40.985Z,14.10
2019-03-09T14:49:12.724Z,14.10
2019-03-09T14:51:44.504Z,14.10
2019-03-09T14:54:16.187Z,14.20
2019-03-09T14:56:47.980Z,14.30
2019-03-09T14:59:19.805Z,14.30
2019-03-09T15:01:51.569Z,14.30
2019-03-09T15:04:23.397Z,14.30
2019-03-09T15:06:55.181Z,14.40
2019-03-09T15:09:26.963Z,14.40
2019-03-09T15:11:58.724Z,14.40
2019-03-09T15:14:30.435Z,14.40
2019-03-09T15:17:02.100Z,14.30
2019-03-09T15:19:33.796Z,14.30
2019-03-09T15:22:05.508Z,14.20
2019-03-09T15:24:37.283Z,14.20
2019-03-09T15:27:09.055Z,14.20
2019-03-09T15:29:40.755Z,14.10
2019-03-09T15:32:12.433Z,14.00
2019-03-09T15:34:44.233Z,14.00
2019-03-09T15:37:16.385Z,14.00
2019-03-09T15:39:48.137Z,13.90
2019-03-09T15:42:19.852Z,13.80
2019-03-09T15:44:51.564Z,13.80
2019-03-09T15:47:23.389Z,13.70
2019-03-09T15:49:55.088Z,13.70
2019-03-09T15:52:26.765Z,13.60
2019-03-09T15:54:58.557Z,13.60
2019-03-09T15:57:30.323Z,13.60
2019-03-09T16:00:02.198Z,13.60
2019-03-09T16:02:33.976Z,13.60
2019-03-09T16:05:05.871Z,13.50
2019-03-09T16:07:37.555Z,13.50
2019-03-09T16:10:10.648Z,13.50
2019-03-09T16:12:42.404Z,13.40
2019-03-09T16:15:14.631Z,13.30
2019-03-09T16:17:47.268Z,13.20
2019-03-09T16:20:18.968Z,13.20
2019-03-09T16:22:50.797Z,13.10
2019-03-09T16:25:22.636Z,13.10
2019-03-09T16:27:54.434Z,13.10
2019-03-09T16:30:26.202Z,13.00
2019-03-09T16:32:57.860Z,13.00
2019-03-09T16:35:29.562Z,12.90
2019-03-09T16:38:01.273Z,12.90
2019-03-09T16:40:40.118Z,12.80
2019-03-09T16:43:06.491Z,12.80
2019-03-09T16:45:38.242Z,12.70
2019-03-09T16:48:09.906Z,12.70
2019-03-09T16:50:41.671Z,12.60
2019-03-09T16:53:13.424Z,12.50
2019-03-09T16:55:45.197Z,12.50
2019-03-09T16:58:16.940Z,12.40
2019-03-09T17:00:48.632Z,12.40
2019-03-09T17:03:20.406Z,12.30
2019-03-09T17:05:52.195Z,12.20
2019-03-09T17:08:23.892Z,12.10
2019-03-09T17:10:55.609Z,12.10
2019-03-09T17:13:27.300Z,12.10
2019-03-09T17:15:58.993Z,12.00
2019-03-09T17:18:30.822Z,12.00
2019-03-09T17:21:02.603Z,11.90
2019-03-09T17:23:34.385Z,11.80
2019-03-09T17:26:06.178Z,11.80
2019-03-09T17:28:37.915Z,11.70
2019-03-09T17:31:09.649Z,11.70
2019-03-09T17:33:41.340Z,11.60
2019-03-09T17:36:13.031Z,11.60
2019-03-09T17:38:44.702Z,11.50
2019-03-09T17:41:16.389Z,11.50
2019-03-09T17:43:48.120Z,11.40
2019-03-09T17:46:23.639Z,11.40
2019-03-09T17:48:55.410Z,11.30
2019-03-09T17:51:27.127Z,11.30
2019-03-09T17:53:58.801Z,11.20
2019-03-09T17:56:30.492Z,11.20
2019-03-09T17:59:02.168Z,11.10
2019-03-09T18:01:33.974Z,11.10
2019-03-09T18:04:05.630Z,11.10
2019-03-09T18:06:37.384Z,11.10
2019-03-09T18:09:09.058Z,11.00
2019-03-09T18:11:40.756Z,11.00
2019-03-09T18:14:12.512Z,11.00
2019-03-09T18:16:52.497Z,10.90
2019-03-09T18:19:17.607Z,10.90
2019-03-09T18:21:49.264Z,10.90
2019-03-09T18:24:20.962Z,10.80
2019-03-09T18:26:52.722Z,10.80
2019-03-09T18:29:24.493Z,10.80
2019-03-09T18:31:56.250Z,10.80
2019-03-09T18:34:27.926Z,10.80
2019-03-09T18:36:59.714Z,10.70
2019-03-09T18:39:31.422Z,10.70
2019-03-09T18:42:03.110Z,10.70
2019-03-09T18:44:34.839Z,10.60
2019-03-09T18:47:06.527Z,10.60
2019-03-09T18:49:38.265Z,10.60
2019-03-09T18:52:10.020Z,10.50
2019-03-09T18:54:41.797Z,10.50
2019-03-09T18:57:13.553Z,10.50
2019-03-09T18:59:45.359Z,10.50
2019-03-09T19:02:17.068Z,10.40
2019-03-09T19:04:49.048Z,10.40
2019-03-09T19:07:20.756Z,10.40
2019-03-09T19:09:52.494Z,10.40
2019-03-09T19:12:24.331Z,10.30
2019-03-09T19:14:56.021Z,10.30
2019-03-09T19:17:27.822Z,10.30
2019-03-09T19:19:59.641Z,10.20
2019-03-09T19:22:31.350Z,10.20
2019-03-09T19:25:03.106Z,10.20
2019-03-09T19:27:34.881Z,10.20
2019-03-09T19:30:07.584Z,10.20
2019-03-09T19:32:39.282Z,10.20
2019-03-09T19:35:11.003Z,10.20
2019-03-09T19:37:42.825Z,10.20
2019-03-09T19:40:15.327Z,10.20
2019-03-09T19:42:47.064Z,10.20
2019-03-09T19:45:18.906Z,10.10
2019-03-09T19:47:50.601Z,10.10
2019-03-09T19:50:22.373Z,10.10
2019-03-09T19:52:54.065Z,10.10
2019-03-09T19:55:25.857Z,10.10
2019-03-09T19:57:57.552Z,10.00
2019-03-09T20:00:29.344Z,10.00
2019-03-09T20:03:01.095Z,10.00
2019-03-09T20:05:32.769Z,10.00
2019-03-09T20:08:04.577Z,9.90
2019-03-09T20:10:36.308Z,10.00
2019-03-09T20:13:08.462Z,9.90
2019-03-09T20:15:40.173Z,9.90
2019-03-09T20:18:11.927Z,9.90
2019-03-09T20:20:43.594Z,9.90
2019-03-09T20:23:16.215Z,9.90
2019-03-09T20:25:48.039Z,9.80
2019-03-09T20:28:19.837Z,9.80
2019-03-09T20:30:51.509Z,9.80
2019-03-09T20:33:23.278Z,9.80
2019-03-09T20:35:55.329Z,9.80
2019-03-09T20:38:27.029Z,9.70
2019-03-09T20:40:58.717Z,9.70
2019-03-09T20:43:30.411Z,9.70
2019-03-09T20:46:02.121Z,9.70
2019-03-09T20:48:33.961Z,9.70
2019-03-09T20:51:05.630Z,9.70
2019-03-09T20:53:37.401Z,9.70
2019-03-09T20:56:09.148Z,9.60
2019-03-09T20:58:40.818Z,9.60
2019-03-09T21:01:12.499Z,9.60
2019-03-09T21:03:44.262Z,9.60
2019-03-09T21:06:16.012Z,9.60
2019-03-09T21:08:47.749Z,9.60
2019-03-09T21:11:19.462Z,9.50
2019-03-09T21:13:51.248Z,9.50
2019-03-09T21:16:23.036Z,9.50
2019-03-09T21:18:55.055Z,9.50
2019-03-09T21:21:26.733Z,9.50
2019-03-09T21:23:58.408Z,9.50
2019-03-09T21:26:30.102Z,9.50
2019-03-09T21:29:01.871Z,9.50
2019-03-09T21:31:33.560Z,9.50
2019-03-09T21:34:05.560Z,9.40
2019-03-09T21:36:37.221Z,9.40
2019-03-09T21:39:09.379Z,9.50
2019-03-09T21:41:41.070Z,9.40
2019-03-09T21:44:12.834Z,9.40
2019-03-09T21:46:44.519Z,9.40
2019-03-09T21:49:16.198Z,9.40
2019-03-09T21:51:47.955Z,9.40
2019-03-09T21:54:20.251Z,9.40
2019-03-09T21:56:51.978Z,9.40
2019-03-09T21:59:23.736Z,9.30
2019-03-09T22:01:55.404Z,9.30
2019-03-09T22:04:27.176Z,9.40
2019-03-09T22:06:58.859Z,9.40
2019-03-09T22:09:30.572Z,9.40
2019-03-09T22:12:02.361Z,9.40
2019-03-09T22:14:34.092Z,9.40
2019-03-09T22:17:05.884Z,9.40
2019-03-09T22:19:37.598Z,9.40
2019-03-09T22:22:09.283Z,9.40
2019-03-09T22:24:41.030Z,9.40
2019-03-09T22:27:12.774Z,9.40
2019-03-09T22:29:45.727Z,9.40
2019-03-09T22:32:19.538Z,9.40
2019-03-09T22:34:50.826Z,9.40
2019-03-09T22:37:22.590Z,9.40
2019-03-09T22:39:54.294Z,9.40
2019-03-09T22:42:25.994Z,9.40
2019-03-09T22:44:57.748Z,9.40
2019-03-09T22:47:29.495Z,9.40
2019-03-09T22:50:01.164Z,9.40
2019-03-09T22:52:32.846Z,9.40
2019-03-09T22:55:04.587Z,9.40
2019-03-09T22:57:36.325Z,9.30
2019-03-09T23:00:10.829Z,9.40
2019-03-09T23:02:44.825Z,9.40
2019-03-09T23:05:16.030Z,9.40
2019-03-09T23:07:47.685Z,9.40
2019-03-09T23:10:19.402Z,9.40
2019-03-09T23:12:51.174Z,9.30
2019-03-09T23:15:22.932Z,9.30
2019-03-09T23:17:54.616Z,9.30
2019-03-09T23:20:26.373Z,9.30
2019-03-09T23:22:58.156Z,9.30
2019-03-09T23:25:29.928Z,9.30
2019-03-09T23:28:01.629Z,9.20
2019-03-09T23:30:33.341Z,9.20
2019-03-09T23:33:08.138Z,9.30
2019-03-09T23:35:39.913Z,9.20
2019-03-09T23:38:11.628Z,9.20
2019-03-09T23:40:43.328Z,9.30
2019-03-09T23:43:15.037Z,9.20
2019-03-09T23:45:46.800Z,9.30
2019-03-09T23:48:18.578Z,9.30
2019-03-09T23:50:50.259Z,9.30
2019-03-09T23:53:21.958Z,9.30
2019-03-09T23:55:53.682Z,9.20
2019-03-09T23:58:25.361Z,9.30
